EHGG Airport Information

Runway Information
Runway 01 Length 4922 ft width 148 ft
Elevation 16 ft Threshold 0 ft Heading 9
Runway 19 Length 4922 ft Width 148 ft
Elevation 12 ft Threshold 0 ft Heading 189
Runway 05 Length 8202 ft width 148 ft
Elevation 13 ft Threshold 0 ft Heading 52
Runway 23 Length 8202 ft Width 148 ft
Elevation 13 ft Threshold 0 ft Heading 232
Airport Frequencies
Type APP Name APP Frequency 120.3 MHZ
Type ATIS Name ATIS Frequency 133.55 MHZ
Type GCCD Name GND/CLNC D Frequency 121.7 MHZ
Type TWR Name TWR Frequency 118.7 MHZ
Airport Navaids
Type VOR-DME Name Eelde Frequency 112400 KHZ
Type NDB Name Eelde Frequency 330 KHZ
Airport Weather Information & NOTAM
ADDS - METARS form results

(0012 UTC 18 January 2018)
 
METAR text: EHGG 172355Z AUTO 23011KT 9999 FEW029 SCT034 BKN045 03/02 Q1000
Conditions at: EHGG (GRONINGEN/EELDE , NL) observed 2355 UTC 17 January 2018
Temperature: 3.0°C (37°F)
Dewpoint: 2.0°C (36°F) [RH = 93%]
Pressure (altimeter): 29.53 inches Hg (1000.0 mb)
Winds: from the SW (230 degrees) at 13 MPH (11 knots; 5.7 m/s)
Visibility: 6 or more miles (10+ km)
Ceiling: 4500 feet AGL
Clouds: few clouds at 2900 feet AGL
scattered clouds at 3400 feet AGL
broken clouds at 4500 feet AGL
Weather: no significant weather observed at this time

METAR text: EHGG 172325Z AUTO 24012KT 9999 FEW019 SCT032 BKN046 04/01 Q1001 REDZ
Conditions at: EHGG (GRONINGEN/EELDE , NL) observed 2325 UTC 17 January 2018
Temperature: 4.0°C (39°F)
Dewpoint: 1.0°C (34°F) [RH = 81%]
Pressure (altimeter): 29.56 inches Hg (1001.0 mb)
Winds: from the WSW (240 degrees) at 14 MPH (12 knots; 6.2 m/s)
Visibility: 6 or more miles (10+ km)
Ceiling: 4600 feet AGL
Clouds: few clouds at 1900 feet AGL
scattered clouds at 3200 feet AGL
broken clouds at 4600 feet AGL
Weather: no significant weather observed at this time